createdAt,value
2019-02-15T00:01:38.698Z,1.50
2019-02-15T00:04:08.392Z,1.50
2019-02-15T00:06:38.072Z,1.50
2019-02-15T00:09:07.746Z,1.50
2019-02-15T00:11:39.106Z,1.40
2019-02-15T00:14:08.846Z,1.40
2019-02-15T00:16:38.534Z,1.30
2019-02-15T00:19:09.940Z,1.30
2019-02-15T00:21:39.600Z,1.40
2019-02-15T00:24:09.312Z,1.40
2019-02-15T00:26:38.971Z,1.30
2019-02-15T00:29:08.672Z,1.20
2019-02-15T00:31:38.508Z,1.20
2019-02-15T00:34:08.199Z,1.20
2019-02-15T00:36:37.960Z,1.20
2019-02-15T00:39:09.833Z,1.20
2019-02-15T00:41:39.331Z,1.20
2019-02-15T00:44:09.148Z,1.20
2019-02-15T00:46:43.399Z,2.10
2019-02-15T00:49:14.705Z,1.20
2019-02-15T00:51:48.954Z,1.20
2019-02-15T00:54:35.289Z,1.10
2019-02-15T00:57:06.625Z,1.20
2019-02-15T00:59:38.008Z,1.10
2019-02-15T01:02:25.904Z,1.00
2019-02-15T01:05:12.340Z,1.20
2019-02-15T01:07:46.999Z,1.30
2019-02-15T01:10:21.183Z,1.20
2019-02-15T01:12:52.501Z,1.20
2019-02-15T01:15:22.351Z,1.10
2019-02-15T01:17:52.107Z,1.30
2019-02-15T01:20:21.869Z,1.20
2019-02-15T01:22:51.532Z,1.10
2019-02-15T01:25:21.360Z,1.20
2019-02-15T01:27:52.708Z,1.20
2019-02-15T01:30:30.001Z,1.20
2019-02-15T01:33:01.325Z,1.20
2019-02-15T01:35:48.151Z,1.20
2019-02-15T01:38:36.030Z,1.00
2019-02-15T01:41:10.120Z,1.20
2019-02-15T01:43:47.382Z,1.10
2019-02-15T01:46:21.877Z,1.10
2019-02-15T01:48:51.671Z,1.00
2019-02-15T01:51:21.435Z,0.90
2019-02-15T01:53:51.171Z,1.00
2019-02-15T01:56:20.870Z,0.90
2019-02-15T01:58:50.608Z,0.90
2019-02-15T02:01:22.027Z,0.80
2019-02-15T02:03:51.765Z,0.80
2019-02-15T02:06:21.557Z,0.90
2019-02-15T02:08:51.320Z,0.90
2019-02-15T02:11:20.989Z,0.90
2019-02-15T02:13:50.702Z,1.00
2019-02-15T02:16:20.388Z,0.90
2019-02-15T02:18:50.134Z,1.00
2019-02-15T02:21:19.864Z,0.90
2019-02-15T02:23:49.546Z,1.00
2019-02-15T02:26:19.373Z,1.00
2019-02-15T02:28:49.122Z,0.90
2019-02-15T02:31:19.343Z,0.90
2019-02-15T02:33:49.075Z,0.80
2019-02-15T02:36:18.772Z,0.80
2019-02-15T02:38:49.527Z,0.80
2019-02-15T02:41:19.265Z,0.90
2019-02-15T02:43:59.043Z,0.90
2019-02-15T02:46:20.378Z,0.70
2019-02-15T02:48:50.128Z,0.70
2019-02-15T02:51:19.889Z,0.70
2019-02-15T02:53:49.633Z,0.70
2019-02-15T02:56:19.343Z,0.60
2019-02-15T02:58:50.065Z,0.60
2019-02-15T03:01:19.833Z,0.50
2019-02-15T03:03:49.594Z,0.60
2019-02-15T03:06:20.399Z,0.60
2019-02-15T03:08:50.082Z,0.60
2019-02-15T03:11:19.760Z,0.60
2019-02-15T03:13:49.439Z,0.60
2019-02-15T03:16:19.185Z,0.60
2019-02-15T03:18:49.009Z,0.50
2019-02-15T03:21:19.473Z,0.50
2019-02-15T03:23:49.375Z,0.60
2019-02-15T03:26:19.120Z,0.60
2019-02-15T03:28:48.780Z,0.70
2019-02-15T03:31:18.475Z,0.70
2019-02-15T03:33:48.252Z,0.70
2019-02-15T03:36:25.340Z,0.50
2019-02-15T03:38:59.719Z,0.30
2019-02-15T03:41:31.206Z,0.30
2019-02-15T03:44:00.979Z,0.30
2019-02-15T03:46:30.699Z,0.20
2019-02-15T03:49:00.758Z,0.20
2019-02-15T03:51:30.506Z,0.10
2019-02-15T03:54:00.319Z,0.10
2019-02-15T03:56:30.074Z,0.10
2019-02-15T03:58:59.846Z,0.10
2019-02-15T04:01:29.600Z,0.00
2019-02-15T04:03:59.354Z,0.00
2019-02-15T04:06:29.041Z,0.00
2019-02-15T04:08:58.902Z,0.00
2019-02-15T04:11:28.705Z,0.00
2019-02-15T04:13:58.453Z,0.00
2019-02-15T04:16:28.273Z,0.10
2019-02-15T04:18:57.950Z,0.10
2019-02-15T04:21:27.646Z,0.20
2019-02-15T04:23:57.395Z,0.20
2019-02-15T04:26:27.133Z,0.10
2019-02-15T04:28:56.832Z,0.20
2019-02-15T04:31:26.577Z,0.30
2019-02-15T04:33:56.334Z,0.20
2019-02-15T04:36:26.108Z,0.00
2019-02-15T04:38:55.851Z,-0.10
2019-02-15T04:41:25.571Z,-0.10
2019-02-15T04:43:55.316Z,-0.20
2019-02-15T04:46:25.186Z,-0.30
2019-02-15T04:48:54.934Z,-0.30
2019-02-15T04:51:24.616Z,-0.30
2019-02-15T04:53:54.386Z,-0.30
2019-02-15T04:56:25.029Z,-0.30
2019-02-15T04:58:56.685Z,-0.30
2019-02-15T05:01:26.179Z,-0.30
2019-02-15T05:03:55.953Z,-0.30
2019-02-15T05:06:25.717Z,-0.30
2019-02-15T05:08:55.479Z,-0.30
2019-02-15T05:11:25.311Z,-0.30
2019-02-15T05:13:55.097Z,-0.30
2019-02-15T05:16:24.905Z,-0.30
2019-02-15T05:18:54.850Z,-0.20
2019-02-15T05:21:24.616Z,-0.20
2019-02-15T05:23:54.375Z,-0.30
2019-02-15T05:26:24.087Z,-0.30
2019-02-15T05:28:53.788Z,-0.40
2019-02-15T05:31:23.582Z,-0.30
2019-02-15T05:33:53.258Z,-0.30
2019-02-15T05:36:23.104Z,-0.20
2019-02-15T05:38:52.969Z,-0.20
2019-02-15T05:41:22.910Z,-0.10
2019-02-15T05:43:52.657Z,0.00
2019-02-15T05:46:22.828Z,-0.10
2019-02-15T05:48:52.595Z,-0.10
2019-02-15T05:51:22.289Z,-0.20
2019-02-15T05:53:52.114Z,-0.30
2019-02-15T05:56:21.873Z,-0.30
2019-02-15T05:58:51.732Z,-0.30
2019-02-15T06:01:22.670Z,-0.30
2019-02-15T06:03:52.359Z,-0.10
2019-02-15T06:06:22.143Z,0.00
2019-02-15T06:08:51.907Z,-0.10
2019-02-15T06:11:21.601Z,-0.20
2019-02-15T06:13:51.367Z,-0.20
2019-02-15T06:16:21.133Z,-0.20
2019-02-15T06:18:50.845Z,-0.20
2019-02-15T06:21:20.611Z,-0.20
2019-02-15T06:23:50.367Z,-0.20
2019-02-15T06:26:20.110Z,-0.20
2019-02-15T06:28:50.047Z,-0.10
2019-02-15T06:31:19.891Z,-0.20
2019-02-15T06:33:49.580Z,-0.20
2019-02-15T06:36:19.367Z,-0.20
2019-02-15T06:38:49.190Z,-0.20
2019-02-15T06:41:18.866Z,-0.10
2019-02-15T06:43:48.640Z,0.00
2019-02-15T06:46:18.343Z,0.10
2019-02-15T06:48:48.158Z,0.00
2019-02-15T06:51:17.910Z,0.00
2019-02-15T06:53:47.787Z,0.10
2019-02-15T06:56:18.685Z,0.10
2019-02-15T06:58:55.773Z,0.10
2019-02-15T07:01:29.896Z,0.10
2019-02-15T07:04:17.631Z,0.20
2019-02-15T07:06:59.365Z,0.20
2019-02-15T07:09:29.207Z,0.20
2019-02-15T07:12:00.760Z,0.30
2019-02-15T07:14:30.638Z,0.40
2019-02-15T07:17:00.421Z,0.50
2019-02-15T07:19:30.108Z,0.70
2019-02-15T07:22:01.436Z,0.80
2019-02-15T07:24:31.125Z,0.90
2019-02-15T07:27:00.908Z,1.10
2019-02-15T07:29:30.669Z,1.30
2019-02-15T07:32:00.501Z,1.60
2019-02-15T07:34:30.333Z,1.90
2019-02-15T07:37:01.372Z,2.10
2019-02-15T07:39:32.858Z,2.40
2019-02-15T07:42:04.171Z,2.80
2019-02-15T07:44:35.056Z,3.10
2019-02-15T07:47:07.812Z,3.40
2019-02-15T07:49:38.353Z,3.60
2019-02-15T07:52:09.360Z,3.90
2019-02-15T07:54:40.537Z,4.20
2019-02-15T07:57:10.424Z,4.20
2019-02-15T07:59:40.785Z,4.40
2019-02-15T08:02:12.057Z,4.50
2019-02-15T08:04:42.295Z,4.70
2019-02-15T08:07:12.271Z,5.00
2019-02-15T08:09:42.219Z,5.20
2019-02-15T08:12:12.600Z,5.30
2019-02-15T08:14:42.797Z,5.60
2019-02-15T08:17:12.628Z,5.60
2019-02-15T08:19:42.418Z,6.00
2019-02-15T08:22:12.153Z,6.50
2019-02-15T08:24:42.015Z,7.00
2019-02-15T08:27:12.059Z,7.20
2019-02-15T08:29:42.113Z,7.50
2019-02-15T08:32:11.940Z,7.80
2019-02-15T08:34:41.687Z,8.30
2019-02-15T08:37:11.364Z,8.80
2019-02-15T08:39:41.076Z,9.50
2019-02-15T08:42:10.770Z,10.50
2019-02-15T08:44:40.575Z,11.80
2019-02-15T08:47:10.349Z,13.30
2019-02-15T08:49:40.222Z,14.70
2019-02-15T08:52:09.927Z,15.60
2019-02-15T08:54:39.625Z,16.40
2019-02-15T08:57:09.537Z,16.80
2019-02-15T08:59:39.757Z,17.40
2019-02-15T09:02:22.713Z,17.80
2019-02-15T09:04:52.473Z,18.30
2019-02-15T09:07:22.504Z,17.60
2019-02-15T09:09:52.216Z,15.30
2019-02-15T09:12:23.331Z,13.30
2019-02-15T09:14:56.736Z,11.90
2019-02-15T09:17:28.143Z,9.80
2019-02-15T09:20:00.284Z,10.20
2019-02-15T09:22:30.768Z,11.30
2019-02-15T09:25:02.038Z,14.00
2019-02-15T09:27:34.686Z,16.70
2019-02-15T09:30:10.270Z,18.80
2019-02-15T09:32:42.115Z,20.60
2019-02-15T09:35:12.439Z,21.60
2019-02-15T09:37:43.597Z,22.80
2019-02-15T09:40:15.100Z,23.30
2019-02-15T09:42:44.938Z,23.90
2019-02-15T09:45:14.656Z,24.00
2019-02-15T09:47:45.407Z,24.40
2019-02-15T09:50:15.404Z,25.00
2019-02-15T09:52:46.239Z,25.50
2019-02-15T09:55:18.593Z,25.10
2019-02-15T09:57:49.647Z,24.50
2019-02-15T10:00:20.930Z,24.30
2019-02-15T10:02:53.309Z,25.10
2019-02-15T10:05:23.680Z,24.60
2019-02-15T10:07:54.099Z,25.50
2019-02-15T10:10:24.147Z,25.70
2019-02-15T10:12:56.549Z,25.60
2019-02-15T10:15:30.897Z,24.70
2019-02-15T10:18:01.899Z,26.40
2019-02-15T10:20:33.435Z,27.00
2019-02-15T10:23:04.969Z,27.20
2019-02-15T10:25:55.339Z,26.10
2019-02-15T10:28:26.526Z,23.60
2019-02-15T10:30:57.530Z,23.70
2019-02-15T10:33:27.535Z,24.10
2019-02-15T10:35:57.690Z,24.00
2019-02-15T10:38:29.915Z,24.30
2019-02-15T10:41:00.685Z,24.70
2019-02-15T10:43:32.088Z,25.70
2019-02-15T10:46:04.936Z,26.80
2019-02-15T10:48:37.369Z,27.30
2019-02-15T10:51:12.880Z,26.00
2019-02-15T10:53:43.517Z,23.40
2019-02-15T10:56:14.274Z,24.60
2019-02-15T10:58:45.302Z,26.20
2019-02-15T11:01:16.991Z,27.50
2019-02-15T11:03:49.759Z,27.10
2019-02-15T11:06:21.742Z,27.90
2019-02-15T11:08:52.392Z,27.40
2019-02-15T11:11:22.292Z,27.00
2019-02-15T11:13:53.069Z,28.20
2019-02-15T11:16:24.194Z,27.50
2019-02-15T11:18:55.503Z,27.40
2019-02-15T11:21:28.224Z,27.40
2019-02-15T11:24:00.668Z,27.90
2019-02-15T11:26:32.212Z,28.50
2019-02-15T11:29:02.993Z,27.00
2019-02-15T11:31:34.641Z,26.30
2019-02-15T11:34:05.166Z,26.30
2019-02-15T11:36:36.909Z,25.90
2019-02-15T11:39:08.737Z,26.70
2019-02-15T11:41:39.806Z,27.10
2019-02-15T11:44:10.864Z,27.20
2019-02-15T11:46:41.466Z,27.80
2019-02-15T11:49:12.149Z,26.50
2019-02-15T11:51:42.577Z,25.10
2019-02-15T11:54:23.127Z,24.50
2019-02-15T11:56:48.426Z,24.60
2019-02-15T11:59:27.684Z,25.10
2019-02-15T12:02:05.861Z,24.10
2019-02-15T12:04:30.489Z,21.20
2019-02-15T12:07:00.192Z,18.60
2019-02-15T12:09:29.938Z,16.90
2019-02-15T12:11:59.703Z,16.10
2019-02-15T12:14:29.490Z,15.50
2019-02-15T12:17:05.470Z,15.00
2019-02-15T12:19:30.631Z,14.60
2019-02-15T12:22:00.312Z,14.20
2019-02-15T12:24:31.205Z,13.90
2019-02-15T12:27:01.016Z,13.60
2019-02-15T12:29:30.950Z,13.60
2019-02-15T12:32:00.915Z,13.50
2019-02-15T12:34:31.404Z,13.30
2019-02-15T12:37:02.304Z,13.20
2019-02-15T12:39:32.349Z,12.80
2019-02-15T12:42:02.268Z,12.80
2019-02-15T12:44:32.585Z,12.70
2019-02-15T12:47:02.324Z,12.70
2019-02-15T12:49:35.037Z,12.70
2019-02-15T12:52:07.116Z,12.60
2019-02-15T12:54:39.078Z,12.70
2019-02-15T12:57:12.086Z,12.70
2019-02-15T12:59:45.433Z,12.70
2019-02-15T13:02:17.773Z,12.70
2019-02-15T13:04:50.512Z,12.60
2019-02-15T13:07:22.955Z,12.50
2019-02-15T13:09:55.986Z,12.50
2019-02-15T13:12:27.454Z,12.50
2019-02-15T13:14:57.430Z,12.40
2019-02-15T13:17:29.189Z,12.40
2019-02-15T13:20:00.575Z,12.40
2019-02-15T13:22:31.982Z,12.30
2019-02-15T13:25:01.924Z,12.40
2019-02-15T13:27:33.170Z,12.40
2019-02-15T13:30:05.802Z,12.40
2019-02-15T13:32:36.883Z,12.40
2019-02-15T13:35:10.778Z,12.40
2019-02-15T13:37:41.966Z,12.40
2019-02-15T13:40:15.059Z,12.40
2019-02-15T13:42:47.708Z,12.40
2019-02-15T13:45:18.450Z,12.60
2019-02-15T13:47:50.468Z,12.70
2019-02-15T13:50:21.860Z,12.70
2019-02-15T13:52:52.766Z,12.70
2019-02-15T13:55:25.003Z,12.80
2019-02-15T13:57:56.376Z,12.80
2019-02-15T14:00:28.125Z,12.80
2019-02-15T14:02:58.384Z,12.90
2019-02-15T14:05:29.678Z,13.00
2019-02-15T14:08:01.066Z,13.00
2019-02-15T14:10:32.481Z,13.00
2019-02-15T14:13:04.358Z,13.20
2019-02-15T14:15:36.449Z,13.10
2019-02-15T14:18:07.835Z,13.10
2019-02-15T14:20:38.572Z,13.00
2019-02-15T14:23:11.051Z,13.00
2019-02-15T14:25:43.290Z,12.90
2019-02-15T14:28:15.477Z,13.00
2019-02-15T14:30:50.954Z,13.10
2019-02-15T14:33:20.735Z,13.00
2019-02-15T14:35:50.525Z,13.00
2019-02-15T14:38:20.258Z,12.90
2019-02-15T14:40:50.012Z,12.90
2019-02-15T14:43:19.704Z,13.00
2019-02-15T14:45:49.467Z,13.20
2019-02-15T14:48:20.677Z,13.30
2019-02-15T14:50:52.815Z,13.50
2019-02-15T14:53:22.766Z,13.50
2019-02-15T14:55:53.914Z,13.70
2019-02-15T14:58:25.298Z,13.90
2019-02-15T15:00:56.370Z,14.10
2019-02-15T15:03:26.400Z,14.20
2019-02-15T15:05:56.159Z,14.30
2019-02-15T15:08:27.681Z,14.30
2019-02-15T15:10:58.329Z,14.30
2019-02-15T15:13:28.136Z,14.30
2019-02-15T15:15:58.232Z,14.30
2019-02-15T15:18:28.020Z,14.30
2019-02-15T15:20:57.819Z,14.30
2019-02-15T15:23:28.522Z,14.30
2019-02-15T15:25:59.962Z,14.30
2019-02-15T15:28:31.241Z,14.30
2019-02-15T15:31:02.476Z,14.30
2019-02-15T15:33:33.881Z,14.30
2019-02-15T15:36:04.476Z,14.40
2019-02-15T15:38:36.173Z,14.30
2019-02-15T15:41:06.957Z,14.30
2019-02-15T15:43:38.831Z,14.30
2019-02-15T15:46:11.293Z,14.30
2019-02-15T15:48:43.781Z,14.20
2019-02-15T15:51:16.267Z,14.20
2019-02-15T15:53:48.524Z,14.10
2019-02-15T15:56:20.816Z,14.00
2019-02-15T15:58:55.397Z,14.00
2019-02-15T16:01:27.082Z,14.10
2019-02-15T16:03:57.623Z,14.00
2019-02-15T16:06:27.302Z,14.00
2019-02-15T16:08:57.450Z,13.90
2019-02-15T16:11:27.502Z,13.80
2019-02-15T16:13:57.882Z,13.80
2019-02-15T16:16:28.271Z,13.70
2019-02-15T16:18:59.502Z,13.50
2019-02-15T16:21:29.555Z,13.40
2019-02-15T16:23:59.895Z,13.40
2019-02-15T16:26:30.806Z,13.40
2019-02-15T16:29:00.587Z,13.40
2019-02-15T16:31:30.651Z,13.40
2019-02-15T16:34:00.559Z,13.20
2019-02-15T16:36:30.305Z,13.10
2019-02-15T16:38:59.968Z,13.10
2019-02-15T16:41:30.776Z,13.10
2019-02-15T16:44:00.496Z,13.10
2019-02-15T16:46:30.267Z,13.10
2019-02-15T16:49:00.038Z,12.90
2019-02-15T16:51:29.712Z,12.80
2019-02-15T16:53:59.454Z,12.80
2019-02-15T16:56:29.226Z,12.80
2019-02-15T16:58:58.965Z,12.70
2019-02-15T17:01:28.812Z,12.60
2019-02-15T17:03:58.464Z,12.60
2019-02-15T17:06:28.153Z,12.70
2019-02-15T17:08:57.829Z,12.60
2019-02-15T17:11:27.573Z,12.60
2019-02-15T17:13:57.247Z,12.50
2019-02-15T17:16:26.933Z,12.40
2019-02-15T17:18:56.657Z,12.30
2019-02-15T17:21:26.427Z,12.20
2019-02-15T17:23:56.170Z,12.10
2019-02-15T17:26:26.131Z,12.00
2019-02-15T17:28:55.867Z,11.90
2019-02-15T17:31:27.546Z,11.90
2019-02-15T17:33:57.516Z,11.80
2019-02-15T17:36:27.193Z,11.90
2019-02-15T17:38:56.864Z,11.80
2019-02-15T17:41:26.860Z,11.80
2019-02-15T17:43:56.649Z,12.10
2019-02-15T17:46:26.630Z,11.60
2019-02-15T17:49:00.711Z,11.60
2019-02-15T17:51:29.496Z,11.60
2019-02-15T17:53:59.201Z,11.50
2019-02-15T17:56:29.001Z,11.40
2019-02-15T17:58:58.822Z,11.30
2019-02-15T18:01:29.142Z,11.20
2019-02-15T18:03:58.885Z,11.20
2019-02-15T18:06:28.659Z,11.20
2019-02-15T18:08:58.419Z,11.10
2019-02-15T18:11:28.188Z,11.10
2019-02-15T18:13:57.959Z,10.90
2019-02-15T18:16:30.080Z,10.90
2019-02-15T18:19:09.662Z,10.70
2019-02-15T18:21:32.440Z,10.80
2019-02-15T18:24:02.351Z,10.60
2019-02-15T18:26:32.185Z,10.60
2019-02-15T18:29:01.988Z,10.60
2019-02-15T18:31:31.747Z,10.40
2019-02-15T18:34:01.655Z,10.30
2019-02-15T18:36:31.489Z,10.20
2019-02-15T18:39:01.341Z,10.10
2019-02-15T18:41:32.701Z,10.10
2019-02-15T18:44:02.458Z,10.10
2019-02-15T18:46:32.482Z,10.00
2019-02-15T18:49:02.307Z,9.90
2019-02-15T18:51:31.978Z,9.80
2019-02-15T18:54:02.599Z,9.80
2019-02-15T18:56:32.406Z,9.60
2019-02-15T18:59:06.510Z,9.60
2019-02-15T19:01:36.354Z,9.50
2019-02-15T19:04:06.167Z,9.50
2019-02-15T19:06:36.070Z,9.40
2019-02-15T19:09:06.119Z,9.20
2019-02-15T19:11:35.971Z,9.10
2019-02-15T19:14:05.749Z,8.90
2019-02-15T19:16:35.455Z,8.80
2019-02-15T19:19:05.131Z,8.80
2019-02-15T19:21:34.798Z,8.70
2019-02-15T19:24:04.614Z,8.60
2019-02-15T19:26:34.328Z,8.50
2019-02-15T19:29:04.017Z,8.50
2019-02-15T19:31:33.723Z,8.40
2019-02-15T19:34:03.556Z,8.40
2019-02-15T19:36:33.333Z,8.20
2019-02-15T19:39:04.157Z,8.10
2019-02-15T19:41:34.064Z,7.90
2019-02-15T19:44:03.837Z,7.80
2019-02-15T19:46:33.612Z,7.80
2019-02-15T19:49:04.220Z,7.70
2019-02-15T19:51:35.873Z,7.60
2019-02-15T19:54:05.730Z,7.70
2019-02-15T19:56:35.850Z,7.70
2019-02-15T19:59:05.652Z,7.70
2019-02-15T20:01:35.456Z,7.60
2019-02-15T20:04:05.471Z,7.60
2019-02-15T20:06:35.314Z,7.40
2019-02-15T20:09:05.817Z,7.30
2019-02-15T20:11:36.065Z,7.20
2019-02-15T20:14:06.137Z,7.10
2019-02-15T20:16:36.010Z,7.10
2019-02-15T20:19:05.851Z,7.00
2019-02-15T20:21:35.619Z,7.00
2019-02-15T20:24:05.631Z,6.80
2019-02-15T20:26:35.464Z,6.60
2019-02-15T20:29:05.134Z,6.60
2019-02-15T20:31:35.389Z,6.60
2019-02-15T20:34:05.595Z,6.50
2019-02-15T20:36:35.523Z,6.40
2019-02-15T20:39:05.739Z,6.30
2019-02-15T20:41:36.134Z,6.30
2019-02-15T20:44:05.933Z,6.40
2019-02-15T20:46:35.825Z,6.30
2019-02-15T20:49:05.680Z,6.40
2019-02-15T20:51:35.798Z,6.20
2019-02-15T20:54:05.603Z,6.30
2019-02-15T20:56:36.513Z,6.30
2019-02-15T20:59:06.488Z,6.30
2019-02-15T21:01:36.272Z,6.20
2019-02-15T21:04:05.956Z,6.10
2019-02-15T21:06:36.021Z,6.00
2019-02-15T21:09:06.396Z,5.90
2019-02-15T21:11:38.351Z,5.90
2019-02-15T21:14:07.827Z,5.70
2019-02-15T21:16:37.580Z,5.70
2019-02-15T21:19:07.516Z,5.50
2019-02-15T21:21:37.409Z,5.50
2019-02-15T21:24:07.376Z,5.50
2019-02-15T21:26:37.080Z,5.40
2019-02-15T21:29:07.957Z,5.30
2019-02-15T21:31:37.755Z,5.20
2019-02-15T21:34:07.845Z,5.20
2019-02-15T21:36:37.765Z,5.30
2019-02-15T21:39:07.883Z,5.40
2019-02-15T21:41:37.672Z,5.40
2019-02-15T21:44:09.352Z,5.40
2019-02-15T21:46:39.556Z,5.40
2019-02-15T21:49:10.468Z,5.30
2019-02-15T21:51:41.483Z,5.20
2019-02-15T21:54:14.606Z,5.20
2019-02-15T21:56:46.479Z,5.10
2019-02-15T21:59:16.929Z,4.90
2019-02-15T22:01:46.663Z,5.00
2019-02-15T22:04:17.307Z,5.00
2019-02-15T22:06:47.629Z,5.00
2019-02-15T22:09:18.539Z,4.90
2019-02-15T22:11:49.598Z,4.90
2019-02-15T22:14:20.004Z,4.90
2019-02-15T22:16:51.030Z,5.00
2019-02-15T22:19:21.984Z,4.90
2019-02-15T22:21:54.560Z,4.90
2019-02-15T22:24:25.297Z,5.00
2019-02-15T22:26:57.091Z,5.00
2019-02-15T22:29:28.163Z,4.90
2019-02-15T22:31:58.528Z,4.80
2019-02-15T22:34:28.458Z,4.80
2019-02-15T22:36:58.234Z,4.70
2019-02-15T22:39:28.471Z,4.60
2019-02-15T22:41:58.912Z,4.50
2019-02-15T22:44:28.913Z,4.30
2019-02-15T22:46:59.795Z,4.30
2019-02-15T22:49:30.274Z,4.10
2019-02-15T22:52:01.795Z,4.10
2019-02-15T22:54:32.339Z,3.90
2019-02-15T22:57:02.076Z,3.70
2019-02-15T22:59:31.759Z,3.70
2019-02-15T23:02:01.553Z,3.80
2019-02-15T23:04:31.228Z,3.90
2019-02-15T23:07:00.912Z,3.90
2019-02-15T23:09:30.578Z,4.00
2019-02-15T23:12:00.404Z,3.90
2019-02-15T23:14:30.064Z,3.80
2019-02-15T23:16:59.750Z,3.80
2019-02-15T23:19:29.424Z,3.70
2019-02-15T23:21:59.201Z,3.50
2019-02-15T23:24:28.943Z,3.30
2019-02-15T23:26:58.676Z,3.40
2019-02-15T23:29:28.376Z,3.40
2019-02-15T23:31:58.136Z,3.40
2019-02-15T23:34:27.936Z,3.40
2019-02-15T23:36:57.717Z,3.50
2019-02-15T23:39:27.464Z,3.60
2019-02-15T23:41:57.215Z,3.50
2019-02-15T23:44:26.901Z,3.50
2019-02-15T23:46:56.593Z,3.50
2019-02-15T23:49:26.247Z,3.40
2019-02-15T23:51:55.958Z,3.40
2019-02-15T23:54:25.689Z,3.30
2019-02-15T23:56:55.461Z,3.20
2019-02-15T23:59:25.188Z,3.10
